Grudziadz, Poland
Current Conditions -  °F | °C
As of 4:30 AM on Sunday 26 Oct 2014 (Local Time) from EPBY Reporting Station
Haze Haze  
Wind Chill: 34°   Ceiling: Unl
Heat Index: 37°   Visibility: 2.1mi
Dew Point: 36°   Wind: 5mph
Humidity: 93%   Direction: 160°SSE
Pressure: 30.27"   Gusts: NA
Location:  53.49°N, 18.75°E
Report Text: EPBY 260230Z 16004KT 3500 BR NSC 03/02 Q1025
Loading
Personal Weather Stations






























Interactive Weather Map
Tropical Storm Tracking
New forecast layout! Learn more

10-Day Weather Forecast

Advertisements
Track Severe Weather on mobile